Tiempo atmosférico en la estación meteorológica de Alhama de Murcia, Murcia (157 m.)



Fecha
DESCASC
Temp. máxima en grados centígrados (hora)
DESCASC
Temp. mínima en grados centígrados (hora)
DESCASC
Temp. media en grados centígrados
DESCASC
Racha de viento máxima en m/sg (hora)
DESCASC
Velocidad máxima media en intervalos de 10 minutos(hora)
DESCASC
Precipitaciones diarias en mm
DESCASC
Precipitaciones de 00:00 a 06:00 en mm
DESCASC
Precipitaciones de 06:00 a 12:00 en mm
DESCASC
Precipitaciones de 12:00 a 18:00 en mm
DESCASC
Precipitaciones de 18:00 a 24:00 en mm
DESCASC
08-12-2019 19.9 (16:00) 5.5 (05:00) 12.7 5.83 (23:50) 3.61 (23:50) 0 0 0 0 0
07-12-2019 16.8 (15:10) 6.9 (23:59) 11.8 4.44 (14:50) 3.06 (15:40) 0 0 0 0 0
06-12-2019 15.9 (15:20) 8.3 (23:30) 12.1 5.28 (15:10) 3.06 (15:40) 0 0 0 0 0
05-12-2019 16.1 (15:40) 9.6 (00:00) 12.9 5.83 (12:50) 3.33 (06:00) 0 0 0 0 0
04-12-2019 13.1 (16:00) 9.1 (00:00) 11.1 12.22 (06:40) 6.67 (07:10) 0.4 0.2 0 0.2 0
03-12-2019 11.9 (00:00) 8.9 (00:00) 10.4 14.17 (01:40) 7.78 (01:50) 48 28.8 7.6 10 1.6
02-12-2019 13 (12:50) 10.6 (00:00) 11.8 9.72 (23:59) 5.56 (23:50) 4.4 0 0 2.2 2.2
01-12-2019 18.8 (15:40) 6.4 (00:00) 12.6 6.11 (13:10) 3.61 (13:10) 0 0 0 0 0
30-11-2019 22.2 (14:40) 9.8 (00:00) 16 8.06 (14:50) 4.44 (15:10) 0 0 0 0 0
29-11-2019 22.5 (14:10) 7 (00:00) 14.8 7.5 (00:40) 3.89 (14:30) 0 0 0 0 0
28-11-2019 20.1 (15:00) 7.2 (00:00) 13.7 7.22 (00:40) 3.33 (23:50) 0 0 0 0 0
27-11-2019 23.6 (13:30) 8.7 (00:00) 16.2 8.33 (11:50) 5 (07:30) 0 0 0 0 0
26-11-2019 21.7 (14:10) 7 (00:00) 14.4 8.61 (20:00) 5 (20:00) 0 0 0 0 0
25-11-2019 22.7 (13:50) 4.9 (00:00) 13.8 8.33 (14:30) 5.56 (14:30) 0 0 0 0 0
24-11-2019 16.8 (13:50) 6.4 (00:00) 11.6 8.61 (12:00) 5.28 (12:00) 0 0 0 0 0
23-11-2019 18.5 (14:00) 9.2 (00:00) 13.8 12.78 (07:50) 6.11 (04:30) 0 0 0 0 0
22-11-2019 15.6 (13:50) 7.1 (00:00) 11.4 12.78 (17:10) 7.5 (17:10) 2.6 0 0.2 0.2 2.2
21-11-2019 15.1 (15:50) 5.1 (00:00) 10.1 3.33 (14:30) 2.22 (14:30) 0.4 0 0 0 0.4
20-11-2019 17.4 (15:00) 2.8 (00:00) 10.1 7.22 (17:30) 4.44 (17:50) 0 0 0 0 0
19-11-2019 17.1 (14:50) 2.8 (00:00) 10 5.56 (16:40) 3.06 (17:10) 0 0 0 0 0
18-11-2019 15.8 (14:20) 8.8 (00:00) 12.3 10.83 (12:20) 6.11 (12:30) 5 4.8 0.2 0 0
17-11-2019 17 (13:40) 1.9 (00:00) 9.4 9.17 (15:10) 5.28 (14:40) 0 0 0 0 0
16-11-2019 15.6 (15:30) 5.2 (00:00) 10.4 9.72 (13:50) 5.28 (10:40) 0 0 0 0 0
15-11-2019 14.8 (13:30) 6.9 (00:00) 10.9 8.89 (03:00) 5 (03:00) 0 0 0 0 0
14-11-2019 16.9 (14:00) 8 (00:00) 12.4 13.06 (12:20) 6.94 (05:50) 0 0 0 0 0
13-11-2019 23.4 (15:40) 9.6 (00:00) 16.5 12.22 (13:20) 6.11 (13:30) 0 0 0 0 0
12-11-2019 19.1 (14:20) 7.3 (00:00) 13.2 11.11 (12:30) 5.28 (12:30) 0 0 0 0 0
11-11-2019 17.3 (15:40) 9.9 (04:00) 13.6 13.06 (00:20) 6.39 (00:30) 0 0 0 0 0

Gráficas

Temp. máximas Temp. mínimas Temp. medias Precipitaciones Rachas de viento máximas Velocidades máximas media en intervalos de 10 minutos

Datos horarios

Fecha y hora oficial Temperatura (ºC) Velocidad del viento (km/h) Dirección del viento Racha (km/h) Dirección de racha Precipitación (mm) Presión (hPa) Tendencia (hPa) Humedad (%)
2019-12-10 23:00:00 -- -- -- -- -- -- -- -- --
2019-12-10 22:00:00 -- -- -- -- -- -- -- -- --
2019-12-10 21:00:00 -- -- -- -- -- -- -- -- --
2019-12-10 20:00:00 8.7 4 Norte 11 Nordeste 0 -- -- 77
2019-12-10 19:00:00 10.2 7 Este 14 Este 0 -- -- 68
2019-12-10 18:00:00 12.1 7 Este 12 Este 0 -- -- 60
2019-12-10 17:00:00 17.2 6 Sudeste 14 Este 0 -- -- 50
2019-12-10 16:00:00 19.4 9 Nordeste 19 Norte 0 -- -- 32
2019-12-10 15:00:00 19.8 9 Nordeste 21 Nordeste 0 -- -- 31
2019-12-10 14:00:00 19.5 10 Norte 21 Nordeste 0 -- -- 28
2019-12-10 13:00:00 18.8 10 Nordeste 21 Norte 0 -- -- 27
2019-12-10 12:00:00 17 8 Nordeste 30 Nordeste 0 -- -- 30
2019-12-10 11:00:00 15.8 18 Nordeste 33 Este 0 -- -- 31
2019-12-10 10:00:00 13.9 13 Nordeste 22 Nordeste 0 -- -- 37
2019-12-10 09:00:00 12.4 10 Nordeste 23 Nordeste 0 -- -- 41
2019-12-10 08:00:00 11.8 18 Nordeste 28 Nordeste 0 -- -- 43
2019-12-10 07:00:00 13 13 Este 30 Este 0 -- -- 38
2019-12-10 06:00:00 12.9 11 Nordeste 33 Nordeste 0 -- -- 42
2019-12-10 05:00:00 13.8 16 Nordeste 29 Este 0 -- -- 40
2019-12-10 04:00:00 13.7 10 Nordeste 26 Este 0 -- -- 43
2019-12-10 03:00:00 14.2 11 Nordeste 36 Nordeste 0 -- -- 43
2019-12-10 02:00:00 14.6 12 Este 36 Este 0 -- -- 43
2019-12-10 01:00:00 13.8 12 Este 23 Este 0 -- -- 47
2019-12-10 00:00:00 11.4 2 Norte 18 Nordeste 0 -- -- 58
2019-12-09 23:00:00 14.3 6 Nordeste 26 Nordeste 0 -- -- 41
2019-12-09 22:00:00 16.1 18 Nordeste 26 Nordeste 0 -- -- 35
2019-12-09 21:00:00 15.1 16 Nordeste 24 Nordeste 0 -- -- 44
2019-12-09 20:00:00 15.9 10 Nordeste 22 Nordeste 0 -- -- 47
2019-12-09 19:00:00 11.5 2 Norte 10 Este 0 -- -- 77
2019-12-09 18:00:00 13.7 6 Este 11 Este 0 -- -- 66
2019-12-09 17:00:00 17.9 5 Sur 13 Sudoeste 0 -- -- 59
2019-12-09 16:00:00 21.5 3 Sudoeste 9 Este 0 -- -- 46
2019-12-09 15:00:00 20.6 6 Este 24 Nordeste 0 -- -- 43
2019-12-09 14:00:00 19.9 5 Nordeste 16 Norte 0 -- -- 44
2019-12-09 13:00:00 18.6 5 Noroeste 15 Noroeste 0 -- -- 48
2019-12-09 12:00:00 17.3 7 Norte 24 Norte 0 -- -- 53
2019-12-09 11:00:00 16.1 3 Norte 15 Nordeste 0 -- -- 60
2019-12-09 10:00:00 14.1 11 Nordeste 21 Nordeste 0 -- -- 73
2019-12-09 09:00:00 13.3 13 Nordeste 23 Norte 0 -- -- 73
2019-12-09 08:00:00 14.2 13 Nordeste 27 Nordeste 0 -- -- 68
2019-12-09 07:00:00 14.1 13 Norte 30 Nordeste 0 -- -- 70
2019-12-09 06:00:00 15.4 14 Nordeste 30 Nordeste 0 -- -- 64
2019-12-09 05:00:00 15.5 13 Norte 26 Este 0 -- -- 62
2019-12-09 04:00:00 16.1 9 Norte 24 Este 0 -- -- 59
2019-12-09 03:00:00 16.2 7 Este 23 Nordeste 0 -- -- 56
2019-12-09 02:00:00 15.2 8 Nordeste 21 Este 0 -- -- 60
2019-12-09 01:00:00 14.6 9 Este 30 Este 0 -- -- 61
2019-12-09 00:00:00 11.8 11 Nordeste 21 Este 0 -- -- 77
2019-12-08 23:00:00 9.3 5 Sur 8 Sur 0 -- -- 96
2019-12-08 22:00:00 9.8 7 Sur 10 Sur 0 -- -- 95
2019-12-08 21:00:00 10.2 3 Sudoeste 10 Sur 0 -- -- 94
2019-12-08 20:00:00 10.5 5 Sudoeste 13 Sur 0 -- -- 89
2019-12-08 19:00:00 11.1 10 Sur 13 Sur 0 -- -- 90
2019-12-08 18:00:00 13.4 6 Sur 10 Oeste 0 -- -- 83
2019-12-08 17:00:00 18.1 3 Sudoeste 8 Sudoeste 0 -- -- 64
2019-12-08 16:00:00 19.9 4 Sudoeste 11 Sudoeste 0 -- -- 49
2019-12-08 15:00:00 19.5 4 Sudoeste 9 Oeste 0 -- -- 50
2019-12-08 14:00:00 18.4 3 Sudoeste 9 Sudoeste 0 -- -- 54
2019-12-08 13:00:00 16.6 2 Oeste 6 Norte 0 -- -- 58
2019-12-08 12:00:00 14.2 2 Oeste 6 Oeste 0 -- -- 69
2019-12-08 11:00:00 11.5 4 Sudoeste 8 Sudoeste 0 -- -- 82
2019-12-08 10:00:00 7.9 2 Sur 8 Sudoeste 0 -- -- 99
2019-12-08 09:00:00 6.1 0 Calma 8 Sur 0 -- -- 97
2019-12-08 08:00:00 6.2 3 Sudoeste 10 Este 0 -- -- 92
2019-12-08 07:00:00 9.8 5 Este 15 Nordeste 0 -- -- 81
2019-12-08 06:00:00 9 10 Este 18 Este 0 -- -- 100
2019-12-08 05:00:00 5.5 4 Sur 10 Noroeste 0 -- -- 99
2019-12-08 04:00:00 6.2 2 Norte 7 Este 0 -- -- 99
2019-12-08 03:00:00 6.2 3 Nordeste 10 Noroeste 0 -- -- 100
2019-12-08 02:00:00 6.3 3 Sur 8 Sur 0 -- -- 99
2019-12-08 01:00:00 6.5 5 Sudoeste 9 Sur 0 -- -- 99
2019-12-08 00:00:00 6.9 5 Sudoeste 11 Sur 0 -- -- 98
2019-12-07 23:00:00 7.3 7 Sur 9 Sur 0 -- -- 98
2019-12-07 22:00:00 8.2 8 Sur 10 Sur 0 -- -- 98
2019-12-07 21:00:00 7.9 4 Sudoeste 7 Sudoeste 0 -- -- 95
2019-12-07 20:00:00 8.5 0 Calma 2 Nordeste 0 -- -- 94
2019-12-07 19:00:00 9.9 0 Calma 12 Este 0 -- -- 88
2019-12-07 18:00:00 12.5 10 Este 13 Este 0 -- -- 77
2019-12-07 17:00:00 15.2 9 Este 13 Nordeste 0 -- -- 66
2019-12-07 16:00:00 16.7 9 Nordeste 16 Nordeste 0 -- -- 58
2019-12-07 15:00:00 16.6 9 Nordeste 16 Nordeste 0 -- -- 62
2019-12-07 14:00:00 16.2 8 Nordeste 14 Nordeste 0 -- -- 66
2019-12-07 13:00:00 15.4 7 Nordeste 12 Nordeste 0 -- -- 68
2019-12-07 12:00:00 14.7 6 Nordeste 14 Este 0 -- -- 69
2019-12-07 11:00:00 12.7 8 Nordeste 16 Nordeste 0 -- -- 81
2019-12-07 10:00:00 11 6 Nordeste 10 Nordeste 0 -- -- 92
2019-12-07 09:00:00 10.6 5 Nordeste 13 Nordeste 0 -- -- 90
2019-12-07 08:00:00 10 8 Nordeste 15 Nordeste 0 -- -- 91
2019-12-07 07:00:00 9.7 7 Nordeste 13 Nordeste 0 -- -- 93
2019-12-07 06:00:00 9.2 5 Nordeste 14 Nordeste 0 -- -- 96
2019-12-07 05:00:00 9.4 5 Nordeste 13 Nordeste 0 -- -- 99
2019-12-07 04:00:00 9.8 6 Nordeste 9 Este 0 -- -- 100
2019-12-07 03:00:00 9.8 5 Nordeste 8 Este 0 -- -- 100
2019-12-07 02:00:00 9.5 2 Nordeste 9 Este 0 -- -- 99
2019-12-07 01:00:00 9.8 5 Este 8 Este 0 -- -- 100
2019-12-07 00:00:00 8.6 2 Este 3 Este 0 -- -- 99
2019-12-06 23:00:00 8.5 0 Calma 8 Este 0 -- -- 98
2019-12-06 22:00:00 9.2 3 Este 7 Este 0 -- -- 97
2019-12-06 21:00:00 10 2 Sudeste 5 Nordeste 0 -- -- 97
2019-12-06 20:00:00 10.4 4 Este 7 Norte 0 -- -- 95
2019-12-06 19:00:00 11.3 4 Norte 7 Norte 0 -- -- 94
2019-12-06 18:00:00 11.9 5 Nordeste 12 Nordeste 0 -- -- 88
2019-12-06 17:00:00 14.4 7 Nordeste 17 Nordeste 0 -- -- 77
2019-12-06 16:00:00 15.6 9 Nordeste 19 Nordeste 0 -- -- 69
2019-12-06 15:00:00 15.3 9 Nordeste 16 Este 0 -- -- 72
2019-12-06 14:00:00 14.9 8 Nordeste 16 Nordeste 0 -- -- 73
2019-12-06 13:00:00 14.3 5 Nordeste 13 Este 0 -- -- 76
2019-12-06 12:00:00 13.3 6 Nordeste 11 Este 0 -- -- 82
2019-12-06 11:00:00 12.4 4 Nordeste 10 Norte 0 -- -- 92
2019-12-06 10:00:00 11.6 4 Nordeste 8 Nordeste 0 -- -- 94
2019-12-06 09:00:00 11 2 Norte 6 Nordeste 0 -- -- 95
2019-12-06 08:00:00 11.3 2 Norte 8 Norte 0 -- -- 93
2019-12-06 07:00:00 11.9 6 Nordeste 13 Nordeste 0 -- -- 90
2019-12-06 06:00:00 11.7 8 Nordeste 12 Nordeste 0 -- -- 94
2019-12-06 05:00:00 11.7 5 Nordeste 10 Nordeste 0 -- -- 95
2019-12-06 04:00:00 11.9 5 Nordeste 10 Nordeste 0 -- -- 95
2019-12-06 03:00:00 11.7 5 Nordeste 8 Nordeste 0 -- -- 96
2019-12-06 02:00:00 11.8 5 Nordeste 10 Nordeste 0 -- -- 95
2019-12-06 01:00:00 11.7 6 Nordeste 9 Nordeste 0 -- -- 98
2019-12-06 00:00:00 11.4 5 Nordeste 10 Nordeste 0 -- -- 99
2019-12-05 23:00:00 11 3 Nordeste 8 Nordeste 0 -- -- 98
2019-12-05 22:00:00 11 2 Nordeste 8 Norte 0 -- -- 97
2019-12-05 21:00:00 11.8 6 Norte 9 Nordeste 0 -- -- 97
2019-12-05 20:00:00 12.2 5 Norte 12 Norte 0 -- -- 95
2019-12-05 19:00:00 12.5 5 Nordeste 12 Nordeste 0 -- -- 91
2019-12-05 18:00:00 13 3 Norte 10 Nordeste 0 -- -- 87
2019-12-05 17:00:00 14.4 7 Nordeste 18 Nordeste 0 -- -- 76
2019-12-05 16:00:00 15.3 9 Nordeste 17 Nordeste 0 -- -- 70
2019-12-05 15:00:00 15.4 9 Nordeste 17 Nordeste 0 -- -- 67
2019-12-05 14:00:00 14.7 8 Nordeste 18 Nordeste 0 -- -- 70
2019-12-05 13:00:00 15 10 Nordeste 21 Este 0 -- -- 68
2019-12-05 12:00:00 14.2 9 Norte 16 Norte 0 -- -- 68
2019-12-05 11:00:00 13.1 9 Nordeste 17 Este 0 -- -- 73
2019-12-05 10:00:00 12.1 8 Nordeste 14 Nordeste 0 -- -- 78
2019-12-05 09:00:00 10.3 5 Nordeste 13 Este 0 -- -- 86
2019-12-05 08:00:00 10.5 7 Este 13 Nordeste 0 -- -- 82
2019-12-05 07:00:00 10.9 7 Este 18 Este 0 -- -- 80
2019-12-05 06:00:00 11 12 Este 19 Este 0 -- -- 81
2019-12-05 05:00:00 11 5 Este 12 Nordeste 0 -- -- 82
2019-12-05 04:00:00 10.5 4 Nordeste 9 Nordeste 0 -- -- 85
2019-12-05 03:00:00 9.8 2 Sudeste 13 Oeste 0 -- -- 93
2019-12-05 02:00:00 9.8 5 Sudoeste 9 Sudoeste 0 -- -- 94
2019-12-05 01:00:00 10.3 3 Sudoeste 9 Sur 0 -- -- 93
2019-12-05 00:00:00 10.2 7 Sur 11 Sur 0 -- -- 94
2019-12-04 23:00:00 10.8 3 Sudoeste 9 Sudoeste 0 -- -- 88
2019-12-04 22:00:00 11.3 4 Sudeste 9 Sur 0 -- -- 83
2019-12-04 21:00:00 11.1 5 Sudeste 10 Sudeste 0 -- -- 84
2019-12-04 20:00:00 11.6 2 Sudeste 10 Este 0 -- -- 82
2019-12-04 19:00:00 11.4 4 Este 9 Este 0 -- -- 83
2019-12-04 18:00:00 11.9 5 Este 9 Nordeste 0 -- -- 79
2019-12-04 17:00:00 12.8 5 Norte 15 Norte 0 -- -- 74
2019-12-04 16:00:00 13.1 5 Nordeste 15 Nordeste 0 -- -- 74
2019-12-04 15:00:00 12.6 9 Nordeste 19 Norte 0 -- -- 76
2019-12-04 14:00:00 12.6 11 Norte 31 Noroeste 0 -- -- 77
2019-12-04 13:00:00 12.4 10 Norte 27 Norte 0.2 -- -- 80
2019-12-04 12:00:00 12.1 8 Norte 27 Norte 0 -- -- 81
2019-12-04 11:00:00 12.7 9 Noroeste 24 Noroeste 0 -- -- 70
2019-12-04 10:00:00 12.7 13 Noroeste 29 Noroeste 0 -- -- 69
2019-12-04 09:00:00 12.4 17 Noroeste 36 Noroeste 0 -- -- 70
2019-12-04 08:00:00 12.2 22 Noroeste 41 Norte 0 -- -- 72
2019-12-04 07:00:00 12.1 19 Noroeste 44 Noroeste 0 -- -- 74
2019-12-04 06:00:00 12 22 Noroeste 38 Noroeste 0 -- -- 74
2019-12-04 05:00:00 11.3 17 Noroeste 39 Noroeste 0 -- -- 80
2019-12-04 04:00:00 10.3 11 Norte 32 Nordeste 0.2 -- -- 86
2019-12-04 03:00:00 10 11 Nordeste 31 Noroeste 0 -- -- 84
2019-12-04 02:00:00 9.8 9 Norte 25 Nordeste 0 -- -- 84
2019-12-04 01:00:00 9.3 8 Nordeste 31 Nordeste 0 -- -- 86
2019-12-04 00:00:00 9.1 12 Norte 29 Norte 0 -- -- 87
2019-12-03 23:00:00 9 15 Norte 36 Norte 0.2 -- -- 90
2019-12-03 22:00:00 9.1 10 Nordeste 26 Norte 0 -- -- 92
2019-12-03 21:00:00 9.3 8 Nordeste 21 Nordeste 1.2 -- -- 95
2019-12-03 20:00:00 9.6 8 Nordeste 17 Norte 0.2 -- -- 95
2019-12-03 19:00:00 9.7 10 Nordeste 19 Nordeste 0 -- -- 98
2019-12-03 18:00:00 9.8 8 Nordeste 19 Nordeste 4.4 -- -- 100
2019-12-03 17:00:00 9.8 15 Nordeste 32 Nordeste 1.8 -- -- 99
2019-12-03 16:00:00 10.4 13 Nordeste 26 Norte 1.4 -- -- 99
2019-12-03 15:00:00 10.5 12 Norte 42 Nordeste 2 -- -- 98
2019-12-03 14:00:00 11 24 Nordeste 39 Nordeste 0.4 -- -- 94
2019-12-03 13:00:00 11.6 25 Nordeste 44 Nordeste 0 -- -- 88
2019-12-03 12:00:00 11.8 22 Nordeste 41 Nordeste 0 -- -- 87
2019-12-03 11:00:00 11.2 20 Nordeste 36 Nordeste 0 -- -- 91
2019-12-03 10:00:00 10.5 10 Nordeste 21 Nordeste 0.2 -- -- 98
2019-12-03 09:00:00 10.2 6 Nordeste 16 Nordeste 2 -- -- 100
2019-12-03 08:00:00 10.1 7 Nordeste 13 Nordeste 2.8 -- -- 100
2019-12-03 07:00:00 10.3 9 Nordeste 22 Nordeste 2.6 -- -- 98
2019-12-03 06:00:00 10.3 12 Nordeste 22 Nordeste 0.2 -- -- 99
2019-12-03 05:00:00 10.4 9 Nordeste 19 Norte 3.8 -- -- 100
2019-12-03 04:00:00 10.5 9 Nordeste 32 Nordeste 7.8 -- -- 100
2019-12-03 03:00:00 11 21 Nordeste 34 Nordeste 8.4 -- -- 100
2019-12-03 02:00:00 11.4 25 Nordeste 51 Nordeste 5.2 -- -- 100
2019-12-03 01:00:00 11.6 22 Nordeste 44 Nordeste 3.4 -- -- 99
2019-12-03 00:00:00 11.9 20 Nordeste 35 Nordeste 0.6 -- -- 99
2019-12-02 23:00:00 11.9 16 Nordeste 29 Nordeste 0.4 -- -- 100
2019-12-02 22:00:00 12 14 Nordeste 26 Nordeste 0.4 -- -- 100
2019-12-02 21:00:00 11.9 9 Nordeste 14 Nordeste 0.4 -- -- 100
2019-12-02 20:00:00 11.8 6 Nordeste 12 Nordeste 0 -- -- 99
2019-12-02 19:00:00 11.8 3 Nordeste 6 Nordeste 0.4 -- -- 98
2019-12-02 18:00:00 12 2 Norte 10 Nordeste 0.8 -- -- 97
2019-12-02 17:00:00 12.2 7 Nordeste 11 Nordeste 0.2 -- -- 96
2019-12-02 16:00:00 12.4 5 Nordeste 13 Este 1 -- -- 95
2019-12-02 15:00:00 12.6 6 Nordeste 11 Norte 0.2 -- -- 92
2019-12-02 14:00:00 12.7 7 Nordeste 13 Nordeste 0 -- -- 86
2019-12-02 13:00:00 13 9 Nordeste 15 Nordeste 0 -- -- 84
2019-12-02 12:00:00 12.3 8 Nordeste 13 Nordeste 0 -- -- 88
2019-12-02 11:00:00 12.1 8 Nordeste 17 Norte 0 -- -- 90
2019-12-02 10:00:00 12.1 12 Nordeste 21 Nordeste 0 -- -- 90
2019-12-02 09:00:00 12.3 11 Nordeste 19 Nordeste 0 -- -- 88
2019-12-02 08:00:00 12 9 Nordeste 24 Norte 0 -- -- 90
2019-12-02 07:00:00 12 3 Norte 13 Nordeste 0 -- -- 88
2019-12-02 06:00:00 11.8 5 Nordeste 12 Nordeste 0 -- -- 86
2019-12-02 05:00:00 11.7 0 Calma 5 Este 0 -- -- 95
2019-12-02 04:00:00 11.5 3 Nordeste 8 Este 0 -- -- 96
2019-12-02 03:00:00 10.7 3 Nordeste 10 Nordeste 0 -- -- 95
2019-12-02 02:00:00 11.9 7 Nordeste 15 Nordeste 0 -- -- 91
2019-12-02 01:00:00 12 10 Nordeste 15 Nordeste 0 -- -- 95
2019-12-02 00:00:00 11.4 9 Norte 17 Nordeste 0 -- -- 99
2019-12-01 23:00:00 11.7 12 Nordeste 17 Nordeste 0 -- -- 98
2019-12-01 22:00:00 10.8 7 Nordeste 12 Nordeste 0 -- -- 98
2019-12-01 21:00:00 10.5 7 Nordeste 16 Nordeste 0 -- -- 95
2019-12-01 20:00:00 10.4 8 Este 18 Nordeste 0 -- -- 93
2019-12-01 19:00:00 11.4 4 Sudeste 8 Sudeste 0 -- -- 88
2019-12-01 18:00:00 14 6 Sur 9 Sudeste 0 -- -- 79
2019-12-01 17:00:00 16.6 3 Este 14 Nordeste 0 -- -- 70
2019-12-01 16:00:00 18.7 9 Nordeste 16 Nordeste 0 -- -- 53
2019-12-01 15:00:00 18.7 9 Nordeste 20 Nordeste 0 -- -- 53
2019-12-01 14:00:00 18.6 11 Nordeste 22 Nordeste 0 -- -- 54
2019-12-01 13:00:00 17.9 13 Nordeste 21 Nordeste 0 -- -- 58
2019-12-01 12:00:00 17.4 12 Nordeste 19 Nordeste 0 -- -- 62
2019-12-01 11:00:00 14.9 6 Nordeste 14 Este 0 -- -- 73
2019-12-01 10:00:00 9.9 4 Nordeste 9 Este 0 -- -- 99
2019-12-01 09:00:00 8 2 Este 9 Sur 0 -- -- 99
2019-12-01 08:00:00 7 3 Sudeste 11 Sur 0 -- -- 99
2019-12-01 07:00:00 6.6 4 Sur 9 Sur 0 -- -- 99
2019-12-01 06:00:00 6.9 5 Sur 11 Sur 0 -- -- 99
2019-12-01 05:00:00 6.8 7 Sur 11 Sur 0 -- -- 99
2019-12-01 04:00:00 7 8 Sur 10 Sur 0 -- -- 99
2019-12-01 03:00:00 7.8 6 Sur 12 Oeste 0 -- -- 99
2019-12-01 02:00:00 8.1 6 Sudoeste 10 Sudoeste 0 -- -- 98
2019-12-01 01:00:00 8.7 3 Sudoeste 9 Sur 0 -- -- 97
2019-12-01 00:00:00 9.8 6 Sudoeste 10 Sur 0 -- -- 97
2019-11-30 23:00:00 10.8 4 Sudoeste 8 Sur 0 -- -- 96
2019-11-30 22:00:00 11.6 5 Sudoeste 15 Sudoeste 0 -- -- 94
2019-11-30 21:00:00 12.9 10 Sudoeste 18 Oeste 0 -- -- 92
2019-11-30 20:00:00 14.8 9 Oeste 19 Sur 0 -- -- 78
2019-11-30 19:00:00 17.3 13 Sur 21 Sur 0 -- -- 64
2019-11-30 18:00:00 18.3 12 Sur 24 Sur 0 -- -- 61
2019-11-30 17:00:00 19.8 12 Sur 22 Sur 0 -- -- 57
2019-11-30 16:00:00 21.5 12 Sur 27 Sudoeste 0 -- -- 53
2019-11-30 15:00:00 21.9 15 Sur 29 Sur 0 -- -- 53
2019-11-30 14:00:00 21.3 15 Sudoeste 28 Sur 0 -- -- 54
2019-11-30 13:00:00 20.4 11 Sudoeste 22 Sudoeste 0 -- -- 53
2019-11-30 12:00:00 18.1 2 Norte 5 Noroeste 0 -- -- 62
2019-11-30 11:00:00 16.6 3 Sur 8 Oeste 0 -- -- 69
2019-11-30 10:00:00 14.7 5 Este 15 Nordeste 0 -- -- 75
2019-11-30 09:00:00 12.9 5 Este 16 Este 0 -- -- 80
2019-11-30 08:00:00 11.6 6 Nordeste 12 Este 0 -- -- 86
2019-11-30 07:00:00 12 6 Este 12 Este 0 -- -- 84
2019-11-30 06:00:00 13.2 4 Nordeste 13 Este 0 -- -- 79
2019-11-30 05:00:00 13.6 5 Este 15 Nordeste 0 -- -- 78
2019-11-30 04:00:00 13.1 6 Este 10 Nordeste 0 -- -- 81
2019-11-30 03:00:00 13 5 Nordeste 12 Este 0 -- -- 81
2019-11-30 02:00:00 12.7 5 Este 12 Este 0 -- -- 82
2019-11-30 01:00:00 11.9 4 Este 10 Este 0 -- -- 87
2019-11-30 00:00:00 12.9 4 Este 10 Este 0 -- -- 82
2019-11-29 23:00:00 14.1 5 Este 11 Nordeste 0 -- -- 77
2019-11-29 22:00:00 13.2 6 Este 12 Este 0 -- -- 83
2019-11-29 21:00:00 11.8 3 Sudoeste 4 Sudoeste 0 -- -- 89
2019-11-29 20:00:00 13.9 4 Sur 12 Este 0 -- -- 81
2019-11-29 19:00:00 16.5 8 Este 14 Este 0 -- -- 67
2019-11-29 18:00:00 17.5 10 Este 15 Nordeste 0 -- -- 64
2019-11-29 17:00:00 19.5 8 Nordeste 17 Nordeste 0 -- -- 59
2019-11-29 16:00:00 21.2 9 Nordeste 20 Este 0 -- -- 52
2019-11-29 15:00:00 22.3 12 Nordeste 22 Noroeste 0 -- -- 47
2019-11-29 14:00:00 22.4 7 Este 17 Este 0 -- -- 44
2019-11-29 13:00:00 20.1 5 Sudoeste 14 Sudoeste 0 -- -- 49
2019-11-29 12:00:00 18 6 Sudoeste 10 Sudoeste 0 -- -- 53
2019-11-29 11:00:00 14.5 5 Sudoeste 10 Sudoeste 0 -- -- 68
2019-11-29 10:00:00 10.3 5 Sur 9 Oeste 0 -- -- 84
2019-11-29 09:00:00 7.5 4 Sudoeste 10 Sudoeste 0 -- -- 92
2019-11-29 08:00:00 7.4 5 Sudoeste 18 Oeste 0 -- -- 90
2019-11-29 07:00:00 7.8 6 Sur 18 Noroeste 0 -- -- 90
2019-11-29 06:00:00 7.3 5 Sudoeste 13 Oeste 0 -- -- 91
2019-11-29 05:00:00 8.1 8 Sudoeste 14 Sur 0 -- -- 92
2019-11-29 04:00:00 9.2 8 Sur 14 Este 0 -- -- 87
2019-11-29 03:00:00 10.2 10 Este 12 Este 0 -- -- 83
2019-11-29 02:00:00 10.8 2 Oeste 15 Nordeste 0 -- -- 80
2019-11-29 01:00:00 12.4 12 Este 27 Este 0 -- -- 72
2019-11-29 00:00:00 12.4 10 Este 17 Este 0 -- -- 74
2019-11-28 23:00:00 12.1 10 Este 17 Este 0 -- -- 77
2019-11-28 22:00:00 11.8 9 Nordeste 15 Norte 0 -- -- 82
2019-11-28 21:00:00 10.3 4 Norte 10 Sudoeste 0 -- -- 95
2019-11-28 20:00:00 10.4 3 Sudoeste 6 Sur 0 -- -- 90
2019-11-28 19:00:00 11.9 9 Sur 11 Sur 0 -- -- 87
2019-11-28 18:00:00 14.8 4 Sudoeste 13 Sudoeste 0 -- -- 79
2019-11-28 17:00:00 18.4 2 Sur 8 Nordeste 0 -- -- 66
2019-11-28 16:00:00 19.7 5 Nordeste 8 Nordeste 0 -- -- 48
2019-11-28 15:00:00 20.1 5 Norte 13 Este 0 -- -- 46
2019-11-28 14:00:00 19.4 4 Norte 10 Norte 0 -- -- 46
2019-11-28 13:00:00 18.9 5 Nordeste 12 Este 0 -- -- 47
2019-11-28 12:00:00 17.6 6 Nordeste 11 Nordeste 0 -- -- 52
2019-11-28 11:00:00 15.2 3 Oeste 6 Oeste 0 -- -- 59
2019-11-28 10:00:00 11.7 0 Calma 8 Este 0 -- -- 73
2019-11-28 09:00:00 7.9 6 Nordeste 8 Este 0 -- -- 90
2019-11-28 08:00:00 7.4 2 Nordeste 11 Nordeste 0 -- -- 90
2019-11-28 07:00:00 7.4 3 Este 9 Sudeste 0 -- -- 91
2019-11-28 06:00:00 7.3 4 Sudoeste 10 Sudeste 0 -- -- 90
2019-11-28 05:00:00 7.8 5 Sur 10 Sur 0 -- -- 88
2019-11-28 04:00:00 8.2 6 Sur 14 Sudoeste 0 -- -- 85
2019-11-28 03:00:00 8.7 4 Nordeste 12 Este 0 -- -- 84
2019-11-28 02:00:00 8.5 6 Nordeste 12 Oeste 0 -- -- 85
2019-11-28 01:00:00 8.9 5 Sudeste 26 Oeste 0 -- -- 84
2019-11-28 00:00:00 8.7 6 Sur 15 Sudoeste 0 -- -- 84
2019-11-27 23:00:00 9.5 4 Este 10 Oeste 0 -- -- 80
2019-11-27 22:00:00 11.6 8 Este 15 Este 0 -- -- 70
2019-11-27 21:00:00 12.5 7 Nordeste 16 Este 0 -- -- 68
2019-11-27 20:00:00 15.2 12 Este 21 Nordeste 0 -- -- 56
2019-11-27 19:00:00 16.3 12 Nordeste 19 Nordeste 0 -- -- 52
2019-11-27 18:00:00 17.9 9 Nordeste 17 Este 0 -- -- 47
2019-11-27 17:00:00 20.1 6 Norte 22 Norte 0 -- -- 44
2019-11-27 16:00:00 22.6 9 Noroeste 22 Noroeste 0 -- -- 35
2019-11-27 15:00:00 23.2 9 Noroeste 26 Oeste 0 -- -- 34
2019-11-27 14:00:00 23.3 8 Noroeste 20 Oeste 0 -- -- 36
2019-11-27 06:00:00 -- -- -- -- -- -- -- -- --
2019-11-27 05:00:00 -- -- -- -- -- -- -- -- --
2019-11-27 04:00:00 11.1 4 Oeste 17 Sur 0 -- -- 93
2019-11-27 03:00:00 11.1 0 Calma 13 Sudoeste 0 -- -- 91
2019-11-27 02:00:00 12.3 7 Sudoeste 22 Sur 0 -- -- 88
2019-11-27 01:00:00 12.1 6 Oeste 19 Sur 0 -- -- 91
2019-11-27 00:00:00 11.3 10 Sudoeste 17 Sudoeste 0 -- -- 97
2019-11-26 23:00:00 12.4 8 Oeste 24 Sudoeste 0 -- -- 92
2019-11-26 22:00:00 12.8 9 Sudoeste 16 Oeste 0 -- -- 92
2019-11-26 21:00:00 14.1 9 Sudoeste 24 Sudoeste 0 -- -- 85
2019-11-26 20:00:00 15.8 18 Sudoeste 31 Sudoeste 0 -- -- 79
2019-11-26 19:00:00 14.8 9 Sudoeste 22 Sudoeste 0 -- -- 86
2019-11-26 18:00:00 15.6 15 Sudoeste 24 Sudoeste 0 -- -- 80
2019-11-26 17:00:00 18.1 5 Sudoeste 14 Sur 0 -- -- 74
2019-11-26 16:00:00 20.2 8 Sudoeste 14 Sur 0 -- -- 61
2019-11-26 15:00:00 21.3 4 Sudoeste 14 Sudoeste 0 -- -- 52
2019-11-26 14:00:00 21.5 7 Sudoeste 15 Sudoeste 0 -- -- 47
2019-11-26 13:00:00 19.9 4 Norte 10 Nordeste 0 -- -- 51
2019-11-26 12:00:00 18.9 6 Nordeste 12 Nordeste 0 -- -- 54
2019-11-26 11:00:00 14 2 Oeste 6 Noroeste 0 -- -- 80
2019-11-26 10:00:00 10.2 3 Sur 5 Sur 0 -- -- 100
2019-11-26 09:00:00 7.8 5 Sur 9 Sur 0 -- -- 99
2019-11-26 08:00:00 7.1 7 Sur 10 Sur 0 -- -- 98
2019-11-26 07:00:00 7.8 0 Calma 9 Sur 0 -- -- 98
2019-11-26 06:00:00 8.2 5 Sudeste 13 Sudeste 0 -- -- 98
2019-11-26 05:00:00 7.4 4 Sudoeste 9 Sudoeste 0 -- -- 97
2019-11-26 04:00:00 8.5 5 Sudoeste 10 Sur 0 -- -- 97
2019-11-26 03:00:00 8.7 2 Oeste 10 Oeste 0 -- -- 96
2019-11-26 02:00:00 9.6 5 Sur 9 Sur 0 -- -- 95
2019-11-26 01:00:00 10.5 4 Sudoeste 8 Sur 0 -- -- 93
2019-11-26 00:00:00 11.5 4 Sur 6 Sudoeste 0 -- -- 91
2019-11-25 23:00:00 11.9 2 Sudeste 8 Sudeste 0 -- -- 91
2019-11-25 22:00:00 11.7 4 Oeste 9 Este 0 -- -- 90
2019-11-25 21:00:00 12.6 3 Nordeste 8 Este 0 -- -- 87
2019-11-25 20:00:00 13.8 4 Nordeste 10 Este 0 -- -- 81
2019-11-25 19:00:00 14.9 6 Este 11 Nordeste 0 -- -- 77
2019-11-25 18:00:00 17.8 7 Norte 13 Este 0 -- -- 66
2019-11-25 17:00:00 19.5 6 Este 8 Este 0 -- -- 67
2019-11-25 16:00:00 21 0 Calma 23 Sudoeste 0 -- -- 58
2019-11-25 15:00:00 20.5 12 Sur 30 Sur 0 -- -- 57
2019-11-25 14:00:00 22.5 13 Sur 24 Sur 0 -- -- 49
2019-11-25 13:00:00 20.5 10 Sudoeste 19 Sudoeste 0 -- -- 54
2019-11-25 12:00:00 16.2 7 Nordeste 15 Nordeste 0 -- -- 62
2019-11-25 11:00:00 13.1 6 Nordeste 12 Este 0 -- -- 73
2019-11-25 10:00:00 11.2 3 Este 19 Oeste 0 -- -- 81
2019-11-25 09:00:00 6.5 7 Sudoeste 19 Oeste 0 -- -- 91
2019-11-25 08:00:00 5.7 10 Sur 13 Sur 0 -- -- 94
2019-11-25 07:00:00 5.6 4 Sudoeste 9 Sur 0 -- -- 91
2019-11-25 06:00:00 5.7 0 Calma 15 Sur 0 -- -- 87
2019-11-25 05:00:00 6.6 8 Sur 15 Sudoeste 0 -- -- 83
2019-11-25 04:00:00 8 5 Nordeste 17 Este 0 -- -- 75
2019-11-25 03:00:00 6.3 4 Norte 9 Nordeste 0 -- -- 81
2019-11-25 02:00:00 4.9 3 Sudoeste 9 Sur 0 -- -- 90
2019-11-25 01:00:00 5.6 6 Sudoeste 10 Sudoeste 0 -- -- 85
2019-11-25 00:00:00 6.4 2 Sudeste 9 Sudeste 0 -- -- 81
2019-11-24 23:00:00 7.6 0 Calma 10 Este 0 -- -- 76
2019-11-24 22:00:00 9.2 5 Nordeste 14 Nordeste 0 -- -- 64
2019-11-24 21:00:00 9.7 8 Nordeste 14 Nordeste 0 -- -- 64
2019-11-24 20:00:00 11 4 Nordeste 22 Este 0 -- -- 60
2019-11-24 19:00:00 12.2 9 Este 19 Nordeste 0 -- -- 56
2019-11-24 18:00:00 12.6 6 Nordeste 11 Este 0 -- -- 56
2019-11-24 17:00:00 14.4 8 Norte 24 Norte 0 -- -- 50
2019-11-24 16:00:00 15.3 6 Norte 23 Norte 0 -- -- 49
2019-11-24 15:00:00 16.1 9 Norte 22 Norte 0 -- -- 47
2019-11-24 14:00:00 16.7 6 Noroeste 25 Noroeste 0 -- -- 41
2019-11-24 13:00:00 16.5 15 Norte 27 Noroeste 0 -- -- 42
2019-11-24 12:00:00 15.5 19 Norte 31 Noroeste 0 -- -- 45
2019-11-24 11:00:00 14.7 12 Noroeste 30 Noroeste 0 -- -- 44
2019-11-24 10:00:00 13.4 10 Norte 26 Norte 0 -- -- 48
2019-11-24 09:00:00 11.6 11 Nordeste 24 Este 0 -- -- 53
2019-11-24 08:00:00 11.7 15 Nordeste 30 Nordeste 0 -- -- 51
2019-11-24 07:00:00 11 12 Este 27 Este 0 -- -- 54
2019-11-24 06:00:00 11.5 7 Noroeste 17 Nordeste 0 -- -- 52
2019-11-24 05:00:00 11.3 10 Nordeste 20 Nordeste 0 -- -- 52
2019-11-24 04:00:00 11.3 8 Nordeste 16 Nordeste 0 -- -- 51
2019-11-24 03:00:00 8.1 6 Nordeste 13 Este 0 -- -- 67
2019-11-24 02:00:00 8.7 8 Sudeste 14 Sur 0 -- -- 67
2019-11-24 01:00:00 9.2 9 Sur 14 Sur 0 -- -- 61
2019-11-24 00:00:00 9.2 10 Sur 18 Sudeste 0 -- -- 63
2019-11-23 23:00:00 11 6 Sudeste 18 Sudeste 0 -- -- 54
2019-11-23 22:00:00 11.9 5 Sudeste 25 Sur 0 -- -- 49
2019-11-23 21:00:00 11.4 8 Sur 17 Este 0 -- -- 52
2019-11-23 20:00:00 11.6 3 Sur 13 Nordeste 0 -- -- 49
2019-11-23 19:00:00 12.3 6 Sudoeste 22 Sudoeste 0 -- -- 46
2019-11-23 18:00:00 13.3 6 Nordeste 21 Norte 0 -- -- 47
2019-11-23 17:00:00 15.9 13 Noroeste 36 Noroeste 0 -- -- 35
2019-11-23 16:00:00 17.6 10 Noroeste 26 Noroeste 0 -- -- 34
2019-11-23 15:00:00 18.3 9 Noroeste 27 Sudoeste 0 -- -- 34
2019-11-23 14:00:00 18.5 15 Oeste 31 Oeste 0 -- -- 35
2019-11-23 13:00:00 17.7 14 Noroeste 33 Noroeste 0 -- -- 33
2019-11-23 12:00:00 17.2 15 Noroeste 37 Noroeste 0 -- -- 34
2019-11-23 11:00:00 16.7 15 Noroeste 38 Oeste 0 -- -- 36
2019-11-23 10:00:00 15.2 12 Noroeste 42 Oeste 0 -- -- 42
2019-11-23 09:00:00 13.8 11 Noroeste 26 Norte 0 -- -- 46
2019-11-23 08:00:00 14.6 15 Oeste 46 Sudoeste 0 -- -- 42
2019-11-23 07:00:00 12.8 19 Sur 36 Sudoeste 0 -- -- 62
2019-11-23 06:00:00 14 5 Norte 43 Sudoeste 0 -- -- 58
2019-11-23 05:00:00 14.7 22 Sudoeste 44 Sur 0 -- -- 50
2019-11-23 04:00:00 13.1 17 Sudoeste 38 Sur 0 -- -- 62
2019-11-23 03:00:00 12.9 14 Sudoeste 31 Oeste 0 -- -- 71
2019-11-23 02:00:00 12.5 8 Oeste 24 Sur 0 -- -- 85
2019-11-23 01:00:00 12.1 12 Sudoeste 32 Sudoeste 0 -- -- 95
2019-11-23 00:00:00 13.2 13 Sur 31 Sudoeste 0 -- -- 94
2019-11-22 23:00:00 13.4 20 Sudoeste 33 Sudoeste 0 -- -- 94
2019-11-22 22:00:00 14.3 21 Sur 40 Sur 0 -- -- 91
2019-11-22 21:00:00 14 24 Sur 37 Sur 0.2 -- -- 95
2019-11-22 20:00:00 13.3 12 Sudoeste 36 Sur 1.4 -- -- 96
2019-11-22 19:00:00 13.4 11 Sudoeste 32 Sudoeste 0.6 -- -- 95
2019-11-22 18:00:00 13.9 22 Sur 46 Sur 0.2 -- -- 90
2019-11-22 17:00:00 13.9 25 Sur 45 Sur 0 -- -- 88
2019-11-22 16:00:00 15.3 18 Sur 37 Sur 0 -- -- 80
2019-11-22 15:00:00 14.9 18 Sur 28 Sur 0 -- -- 86
2019-11-22 14:00:00 15.4 19 Sur 34 Sur 0 -- -- 84
2019-11-22 13:00:00 12.3 5 Oeste 18 Sudoeste 0 -- -- 99
2019-11-22 12:00:00 10.8 3 Nordeste 6 Nordeste 0 -- -- 100
2019-11-22 11:00:00 9.8 0 Calma 4 Oeste 0 -- -- 100
2019-11-22 10:00:00 9 3 Oeste 8 Sudeste 0.2 -- -- 100
2019-11-22 09:00:00 7.9 0 Calma 5 Nordeste 0 -- -- 100
2019-11-22 08:00:00 7.4 4 Sur 6 Sudoeste 0 -- -- 100
2019-11-22 07:00:00 7.5 3 Sur 5 Sudoeste 0 -- -- 99
2019-11-22 06:00:00 7.2 3 Norte 7 Sur 0 -- -- 98
2019-11-22 05:00:00 7.9 4 Sur 6 Sudoeste 0 -- -- 98
2019-11-22 04:00:00 8.6 3 Este 5 Este 0 -- -- 98
2019-11-22 03:00:00 9.1 3 Este 5 Este 0 -- -- 98
2019-11-22 02:00:00 9.6 4 Nordeste 8 Este 0 -- -- 98
2019-11-22 01:00:00 9.7 4 Norte 6 Norte 0 -- -- 97
2019-11-22 00:00:00 10.2 2 Sudoeste 7 Sur 0 -- -- 97
2019-11-21 23:00:00 10.4 3 Sudeste 8 Nordeste 0.2 -- -- 96
2019-11-21 22:00:00 10.7 5 Nordeste 7 Nordeste 0.2 -- -- 94
2019-11-21 21:00:00 10.7 2 Oeste 6 Nordeste 0 -- -- 91
2019-11-21 20:00:00 10.8 5 Este 8 Este 0 -- -- 89
2019-11-21 19:00:00 11 0 Calma 5 Sudeste 0 -- -- 90
2019-11-21 18:00:00 12.4 0 Calma 9 Este 0 -- -- 83
2019-11-21 17:00:00 13.8 2 Norte 8 Norte 0 -- -- 76
2019-11-21 16:00:00 15 3 Norte 11 Norte 0 -- -- 65
2019-11-21 15:00:00 13.8 6 Nordeste 12 Nordeste 0 -- -- 72
2019-11-21 14:00:00 13 4 Nordeste 7 Nordeste 0 -- -- 75
2019-11-21 13:00:00 13 3 Nordeste 8 Norte 0 -- -- 74
2019-11-21 12:00:00 11.8 5 Sudoeste 9 Sudoeste 0 -- -- 81
2019-11-21 11:00:00 9.3 3 Sur 8 Oeste 0 -- -- 89
2019-11-21 10:00:00 8.1 2 Sur 7 Sudoeste 0 -- -- 98
2019-11-21 09:00:00 6.6 2 Nordeste 4 Nordeste 0 -- -- 99
2019-11-21 08:00:00 5.5 5 Sur 9 Sur 0 -- -- 99
2019-11-21 07:00:00 5.1 2 Oeste 6 Sur 0 -- -- 98
2019-11-21 06:00:00 5.5 5 Sur 8 Sur 0 -- -- 97
2019-11-21 05:00:00 6.4 4 Sudoeste 9 Este 0 -- -- 97
2019-11-21 04:00:00 6 2 Noroeste 8 Este 0 -- -- 95
2019-11-21 03:00:00 6.8 3 Nordeste 9 Sudoeste 0 -- -- 94
2019-11-21 02:00:00 7.6 5 Este 9 Este 0 -- -- 94
2019-11-21 01:00:00 7.6 3 Este 7 Este 0 -- -- 91
2019-11-21 00:00:00 9.5 4 Nordeste 12 Sudoeste 0 -- -- 86
2019-11-20 23:00:00 9.3 4 Sudoeste 7 Sudoeste 0 -- -- 87
2019-11-20 22:00:00 10.6 6 Sur 22 Sur 0 -- -- 81
2019-11-20 21:00:00 10.6 3 Sur 10 Sudoeste 0 -- -- 91
2019-11-20 20:00:00 11.2 2 Norte 8 Sudeste 0 -- -- 90
2019-11-20 19:00:00 12.1 3 Sudoeste 20 Sudeste 0 -- -- 85
2019-11-20 18:00:00 13.1 11 Sur 26 Sur 0 -- -- 75
2019-11-20 17:00:00 14 11 Sur 23 Sur 0 -- -- 67
2019-11-20 16:00:00 16.1 11 Sur 18 Sur 0 -- -- 54
2019-11-20 15:00:00 17.4 8 Sur 23 Sur 0 -- -- 47
2019-11-20 14:00:00 16.1 13 Sur 23 Sur 0 -- -- 58
2019-11-20 13:00:00 14.3 2 Noroeste 8 Nordeste 0 -- -- 64
2019-11-20 12:00:00 12.5 4 Norte 9 Nordeste 0 -- -- 66
2019-11-20 11:00:00 9.7 4 Norte 7 Norte 0 -- -- 80
2019-11-20 10:00:00 6.1 0 Calma 2 Noroeste 0 -- -- 99
2019-11-20 09:00:00 3.2 0 Calma 4 Sur 0 -- -- 99
2019-11-20 08:00:00 2.8 3 Sudoeste 4 Sudoeste 0 -- -- 98
2019-11-20 07:00:00 3.1 0 Calma 4 Sudoeste 0 -- -- 98
2019-11-20 06:00:00 4 3 Nordeste 4 Sur 0 -- -- 97
2019-11-20 05:00:00 5.3 0 Calma 3 Sur 0 -- -- 98
2019-11-20 04:00:00 5.4 0 Calma 4 Sur 0 -- -- 98
2019-11-20 03:00:00 4.7 2 Sur 8 Sur 0 -- -- 97
2019-11-20 02:00:00 4.6 7 Sur 8 Sudoeste 0 -- -- 96
2019-11-20 01:00:00 5.3 3 Sudoeste 5 Oeste 0 -- -- 95
2019-11-20 00:00:00 6 4 Nordeste 6 Este 0 -- -- 94
2019-11-19 23:00:00 7 2 Noroeste 7 Nordeste 0 -- -- 93
2019-11-19 22:00:00 7.6 0 Calma 8 Sur 0 -- -- 92
2019-11-19 21:00:00 9.3 3 Sudoeste 11 Sur 0 -- -- 86
2019-11-19 20:00:00 11.2 8 Sur 13 Sur 0 -- -- 75
2019-11-19 19:00:00 11.7 7 Sur 18 Sudeste 0 -- -- 74
2019-11-19 18:00:00 12.4 9 Sur 19 Sur 0 -- -- 73
2019-11-19 17:00:00 14.1 11 Sur 20 Sudeste 0 -- -- 62
2019-11-19 16:00:00 16.1 3 Norte 12 Sur 0 -- -- 36
2019-11-19 15:00:00 17 5 Sudoeste 10 Nordeste 0 -- -- 35
2019-11-19 14:00:00 16.4 8 Nordeste 14 Nordeste 0 -- -- 39
2019-11-19 13:00:00 15.4 3 Norte 10 Noroeste 0 -- -- 37
2019-11-19 12:00:00 14.3 4 Norte 18 Norte 0 -- -- 41
2019-11-19 11:00:00 13.1 6 Este 13 Nordeste 0 -- -- 45
2019-11-19 10:00:00 9 8 Nordeste 13 Nordeste 0 -- -- 60
2019-11-19 09:00:00 7.2 3 Norte 17 Este 0 -- -- 67
2019-11-19 08:00:00 2.8 4 Este 12 Este 0 -- -- 89
2019-11-19 07:00:00 3.3 5 Nordeste 14 Oeste 0 -- -- 88
2019-11-19 06:00:00 3.6 5 Sudoeste 8 Sur 0 -- -- 87
2019-11-19 05:00:00 5 3 Sudoeste 14 Sudeste 0 -- -- 79
2019-11-19 04:00:00 5.6 6 Sur 15 Sur 0 -- -- 78
2019-11-19 03:00:00 7.1 5 Este 13 Nordeste 0 -- -- 72
2019-11-19 02:00:00 8.4 5 Nordeste 15 Nordeste 0 -- -- 63
2019-11-19 01:00:00 9.5 9 Este 15 Este 0 -- -- 57
2019-11-19 00:00:00 8.8 5 Este 13 Este 0 -- -- 66
2019-11-18 23:00:00 10.6 8 Nordeste 19 Este 0 -- -- 53
2019-11-18 22:00:00 11.9 8 Norte 21 Noroeste 0 -- -- 47
2019-11-18 21:00:00 10.8 8 Nordeste 18 Nordeste 0 -- -- 52
2019-11-18 20:00:00 10.5 9 Este 15 Este 0 -- -- 53
2019-11-18 19:00:00 11.6 7 Norte 21 Norte 0 -- -- 48
2019-11-18 18:00:00 12.5 13 Norte 26 Nordeste 0 -- -- 46
2019-11-18 17:00:00 14 15 Norte 27 Norte 0 -- -- 46
2019-11-18 16:00:00 15.1 16 Norte 38 Norte 0 -- -- 44
2019-11-18 15:00:00 15.7 19 Norte 37 Noroeste 0 -- -- 43
2019-11-18 14:00:00 15.5 18 Norte 37 Noroeste 0 -- -- 44
2019-11-18 13:00:00 14.5 15 Norte 39 Norte 0 -- -- 50
2019-11-18 12:00:00 13.8 18 Noroeste 38 Noroeste 0 -- -- 52
2019-11-18 11:00:00 12.3 20 Norte 35 Norte 0 -- -- 56
2019-11-18 10:00:00 11.8 9 Norte 21 Norte 0 -- -- 62
2019-11-18 09:00:00 9.5 14 Nordeste 23 Nordeste 0.2 -- -- 75
2019-11-18 08:00:00 9.8 12 Nordeste 18 Este 0 -- -- 78
2019-11-18 07:00:00 9.7 4 Este 18 Este 0 -- -- 87
2019-11-18 06:00:00 10 8 Nordeste 31 Este 0.2 -- -- 86
2019-11-18 05:00:00 10.1 5 Este 13 Este 2.8 -- -- 93
2019-11-18 04:00:00 10.2 7 Nordeste 20 Norte 1.8 -- -- 94
2019-11-18 03:00:00 10.8 10 Nordeste 28 Nordeste 0 -- -- 89
2019-11-18 02:00:00 10.9 18 Este 32 Este 0 -- -- 78
2019-11-18 01:00:00 14 6 Oeste 24 Sur 0 -- -- 60
2019-11-18 00:00:00 15.2 15 Sur 29 Sur 0 -- -- 59
2019-11-17 23:00:00 14.5 15 Sur 29 Sur 0 -- -- 61
2019-11-17 22:00:00 13.6 10 Sur 23 Sur 0 -- -- 64
2019-11-17 21:00:00 10.9 5 Este 16 Este 0 -- -- 72
2019-11-17 20:00:00 11.9 8 Sur 15 Sudeste 0 -- -- 68
2019-11-17 19:00:00 12.1 3 Sudeste 19 Sur 0 -- -- 67
2019-11-17 18:00:00 13.9 11 Sur 24 Sur 0 -- -- 56
2019-11-17 17:00:00 15.4 15 Sur 32 Sur 0 -- -- 48
2019-11-17 16:00:00 15.8 14 Sur 33 Sur 0 -- -- 40
2019-11-17 15:00:00 16.2 15 Sur 30 Sur 0 -- -- 40
2019-11-17 14:00:00 16.8 11 Sudoeste 28 Sudoeste 0 -- -- 39
2019-11-17 13:00:00 15.3 13 Sudoeste 29 Sudoeste 0 -- -- 39
2019-11-17 12:00:00 13.9 14 Sur 26 Sur 0 -- -- 42
2019-11-17 11:00:00 12 9 Sudoeste 22 Sur 0 -- -- 47
2019-11-17 10:00:00 10.3 10 Sudoeste 20 Sur 0 -- -- 49
2019-11-17 09:00:00 2.5 4 Sudoeste 11 Sur 0 -- -- 83
2019-11-17 08:00:00 2 6 Sudoeste 10 Sudoeste 0 -- -- 82
2019-11-17 07:00:00 2 5 Sudoeste 11 Oeste 0 -- -- 81
2019-11-17 06:00:00 2.5 6 Sudoeste 12 Sur 0 -- -- 80
2019-11-17 05:00:00 3.9 4 Sudoeste 9 Sur 0 -- -- 71
2019-11-17 04:00:00 6 9 Sur 18 Sudeste 0 -- -- 60
2019-11-17 03:00:00 6.7 6 Sudeste 19 Sur 0 -- -- 56
2019-11-17 02:00:00 5.6 4 Sur 20 Sur 0 -- -- 67
2019-11-17 01:00:00 5 9 Sur 17 Sur 0 -- -- 65
2019-11-17 00:00:00 5.2 5 Sur 14 Este 0 -- -- 70
2019-11-16 23:00:00 6 6 Sur 14 Este 0 -- -- 66
2019-11-16 22:00:00 7 2 Noroeste 14 Nordeste 0 -- -- 65
2019-11-16 21:00:00 9 7 Nordeste 13 Nordeste 0 -- -- 50
2019-11-16 20:00:00 10.8 14 Este 22 Nordeste 0 -- -- 43
2019-11-16 19:00:00 10.4 5 Norte 12 Norte 0 -- -- 49
2019-11-16 18:00:00 12.5 3 Norte 23 Noroeste 0 -- -- 42
2019-11-16 17:00:00 14.1 9 Norte 28 Noroeste 0 -- -- 35
2019-11-16 16:00:00 15.4 11 Noroeste 27 Norte 0 -- -- 34
2019-11-16 15:00:00 15 14 Noroeste 29 Norte 0 -- -- 36
2019-11-16 14:00:00 14.5 13 Noroeste 35 Norte 0 -- -- 37
2019-11-16 13:00:00 13.7 18 Noroeste 28 Norte 0 -- -- 39
2019-11-16 12:00:00 13 14 Norte 33 Noroeste 0 -- -- 43
2019-11-16 11:00:00 11.5 15 Norte 31 Norte 0 -- -- 48
2019-11-16 10:00:00 10.1 15 Norte 24 Norte 0 -- -- 51
2019-11-16 09:00:00 7.7 7 Nordeste 19 Nordeste 0 -- -- 61
2019-11-16 08:00:00 7.4 6 Nordeste 20 Nordeste 0 -- -- 61
2019-11-16 07:00:00 7.4 6 Nordeste 19 Nordeste 0 -- -- 60
2019-11-16 06:00:00 7 10 Nordeste 17 Este 0 -- -- 62
2019-11-16 05:00:00 7.4 3 Norte 26 Este 0 -- -- 61
2019-11-16 04:00:00 8.3 8 Nordeste 21 Este 0 -- -- 55
2019-11-16 03:00:00 9.2 9 Este 23 Este 0 -- -- 50
2019-11-16 02:00:00 8.3 6 Nordeste 15 Este 0 -- -- 55
2019-11-16 01:00:00 8.9 8 Nordeste 14 Este 0 -- -- 53
2019-11-16 00:00:00 7.9 5 Norte 20 Nordeste 0 -- -- 60
2019-11-15 23:00:00 8.2 4 Nordeste 17 Este 0 -- -- 56
2019-11-15 22:00:00 7.9 6 Nordeste 15 Nordeste 0 -- -- 58
2019-11-15 21:00:00 8.2 4 Nordeste 18 Este 0 -- -- 56
2019-11-15 20:00:00 8.5 12 Este 16 Este 0 -- -- 56
2019-11-15 19:00:00 10.1 4 Nordeste 10 Nordeste 0 -- -- 54
2019-11-15 18:00:00 11 5 Nordeste 22 Noroeste 0 -- -- 49
2019-11-15 17:00:00 12.5 13 Norte 30 Noroeste 0 -- -- 41
2019-11-15 16:00:00 14.4 10 Noroeste 25 Oeste 0 -- -- 34
2019-11-15 15:00:00 14.7 12 Noroeste 27 Norte 0 -- -- 34
2019-11-15 14:00:00 14.4 8 Noroeste 27 Oeste 0 -- -- 39
2019-11-15 13:00:00 13.6 8 Noroeste 28 Noroeste 0 -- -- 40
2019-11-15 12:00:00 14.1 10 Noroeste 29 Oeste 0 -- -- 39
2019-11-15 11:00:00 12.3 3 Noroeste 9 Sudoeste 0 -- -- 53
2019-11-15 10:00:00 11.1 4 Sudoeste 8 Sur 0 -- -- 59
2019-11-15 09:00:00 8.2 6 Este 11 Nordeste 0 -- -- 73
2019-11-15 08:00:00 7.7 4 Sudeste 10 Sur 0 -- -- 73
2019-11-15 07:00:00 7.5 4 Norte 14 Este 0 -- -- 70
2019-11-15 06:00:00 8 2 Oeste 15 Sur 0 -- -- 65
2019-11-15 05:00:00 8.6 8 Sur 18 Sudoeste 0 -- -- 61
2019-11-15 04:00:00 9.8 10 Sudoeste 27 Sur 0 -- -- 55
2019-11-15 03:00:00 11 18 Sur 32 Sur 0 -- -- 52
2019-11-15 02:00:00 10.5 16 Sur 30 Sur 0 -- -- 57
2019-11-15 01:00:00 10.5 8 Sur 26 Este 0 -- -- 57
2019-11-15 00:00:00 11 10 Sur 32 Sur 0 -- -- 53
2019-11-14 23:00:00 10.6 7 Sur 30 Oeste 0 -- -- 53
2019-11-14 22:00:00 10.1 10 Sur 21 Nordeste 0 -- -- 57
2019-11-14 21:00:00 11.7 12 Este 32 Sur 0 -- -- 48
2019-11-14 20:00:00 8 7 Sur 18 Sudeste 0 -- -- 73
2019-11-14 19:00:00 8.6 5 Este 13 Sur 0 -- -- 76
2019-11-14 18:00:00 10.5 8 Sur 13 Oeste 0 -- -- 72
2019-11-14 17:00:00 12.5 5 Nordeste 16 Sudeste 0 -- -- 63
2019-11-14 16:00:00 10.6 9 Nordeste 27 Este 0 -- -- 74
2019-11-14 15:00:00 11.5 14 Norte 41 Nordeste 0 -- -- 66
2019-11-14 14:00:00 16.9 17 Sudoeste 35 Sur 0 -- -- 48
2019-11-14 13:00:00 16.2 22 Sur 47 Sudoeste 0 -- -- 46
2019-11-14 12:00:00 15.7 19 Sudoeste 37 Sudoeste 0 -- -- 47
2019-11-14 11:00:00 16.2 15 Sudoeste 37 Sudoeste 0 -- -- 47
2019-11-14 10:00:00 15.2 14 Sudoeste 27 Sudoeste 0 -- -- 52
2019-11-14 09:00:00 15.2 18 Sudoeste 41 Sudoeste 0 -- -- 51
2019-11-14 08:00:00 14.8 15 Sudoeste 33 Sur 0 -- -- 56
2019-11-14 07:00:00 15.2 20 Sur 36 Sur 0 -- -- 53
2019-11-14 06:00:00 15.9 21 Sur 42 Sur 0 -- -- 53
2019-11-14 05:00:00 16.1 24 Sur 37 Sur 0 -- -- 54
2019-11-14 04:00:00 15.5 11 Sudoeste 28 Sur 0 -- -- 58
2019-11-14 03:00:00 15.1 10 Sudoeste 27 Sur 0 -- -- 61
2019-11-14 02:00:00 15.2 16 Sudoeste 24 Sudoeste 0 -- -- 61
2019-11-14 01:00:00 15.4 14 Sur 22 Sur 0 -- -- 60
2019-11-14 00:00:00 15.2 11 Sur 19 Sudoeste 0 -- -- 60
2019-11-13 23:00:00 14.2 5 Sudoeste 16 Sur 0 -- -- 65
2019-11-13 22:00:00 12 4 Sur 8 Sur 0 -- -- 78
2019-11-13 21:00:00 13.7 2 Sur 13 Sudeste 0 -- -- 71
2019-11-13 20:00:00 14.9 5 Este 10 Nordeste 0 -- -- 66
2019-11-13 19:00:00 17.6 5 Este 17 Norte 0 -- -- 57
2019-11-13 18:00:00 19.1 10 Nordeste 21 Norte 0 -- -- 48
2019-11-13 17:00:00 21.3 11 Norte 33 Noroeste 0 -- -- 41
2019-11-13 16:00:00 23 15 Norte 29 Norte 0 -- -- 36
2019-11-13 15:00:00 22 8 Norte 39 Norte 0 -- -- 40
2019-11-13 14:00:00 23.1 18 Noroeste 44 Noroeste 0 -- -- 37
2019-11-13 13:00:00 22.4 17 Noroeste 39 Noroeste 0 -- -- 39
2019-11-13 12:00:00 21.1 9 Sudoeste 24 Oeste 0 -- -- 45
2019-11-13 11:00:00 20.7 10 Sudoeste 31 Sudoeste 0 -- -- 48
2019-11-13 10:00:00 17.9 12 Sudoeste 28 Sur 0 -- -- 53
2019-11-13 09:00:00 12.9 10 Sudoeste 20 Sudoeste 0 -- -- 72
2019-11-13 08:00:00 10.1 9 Sudoeste 14 Sur 0 -- -- 74
2019-11-13 07:00:00 10.7 4 Sudoeste 7 Noroeste 0 -- -- 73
2019-11-13 06:00:00 11.9 5 Nordeste 17 Sur 0 -- -- 60
2019-11-13 05:00:00 15.2 8 Sur 24 Sur 0 -- -- 50
2019-11-13 04:00:00 14.8 9 Sur 21 Sur 0 -- -- 49
2019-11-13 03:00:00 14.7 14 Sur 27 Sur 0 -- -- 48
2019-11-13 02:00:00 14.7 14 Sur 26 Sudoeste 0 -- -- 49
2019-11-13 01:00:00 14.5 16 Sur 30 Sur 0 -- -- 50
2019-11-13 00:00:00 13.1 15 Sur 26 Sur 0 -- -- 53
2019-11-12 23:00:00 7.3 6 Sur 8 Sudoeste 0 -- -- 76
2019-11-12 22:00:00 8.1 6 Sur 10 Sur 0 -- -- 71
2019-11-12 21:00:00 9.5 2 Sudeste 10 Norte 0 -- -- 65
2019-11-12 20:00:00 10.5 3 Nordeste 10 Sudeste 0 -- -- 62
2019-11-12 19:00:00 13 3 Noroeste 15 Oeste 0 -- -- 52
2019-11-12 18:00:00 15.6 4 Norte 18 Norte 0 -- -- 42
2019-11-12 17:00:00 17.6 10 Noroeste 23 Norte 0 -- -- 33
2019-11-12 16:00:00 18.6 10 Norte 27 Oeste 0 -- -- 33
2019-11-12 15:00:00 19 12 Noroeste 34 Oeste 0 -- -- 31
2019-11-12 14:00:00 18.9 11 Norte 34 Norte 0 -- -- 31
2019-11-12 13:00:00 18 17 Norte 40 Noroeste 0 -- -- 31
2019-11-12 12:00:00 16.7 14 Norte 33 Noroeste 0 -- -- 34
2019-11-12 11:00:00 15.4 11 Norte 34 Norte 0 -- -- 36
2019-11-12 10:00:00 13.5 15 Nordeste 27 Nordeste 0 -- -- 42
2019-11-12 09:00:00 11.2 12 Nordeste 24 Nordeste 0 -- -- 48
2019-11-12 08:00:00 11.6 14 Este 27 Nordeste 0 -- -- 46
2019-11-12 07:00:00 11.2 14 Nordeste 31 Este 0 -- -- 49
2019-11-12 06:00:00 11.5 9 Nordeste 29 Norte 0 -- -- 50
2019-11-12 05:00:00 11.4 11 Nordeste 19 Nordeste 0 -- -- 52
2019-11-12 04:00:00 12.1 7 Norte 28 Noroeste 0 -- -- 50
2019-11-12 03:00:00 12.4 10 Nordeste 26 Norte 0 -- -- 52
2019-11-12 02:00:00 12.7 12 Nordeste 24 Nordeste 0 -- -- 56
2019-11-12 01:00:00 13.5 11 Nordeste 22 Nordeste 0 -- -- 55
2019-11-12 00:00:00 13.7 9 Norte 19 Norte 0 -- -- 57
2019-11-11 23:00:00 13.8 6 Noroeste 20 Oeste 0 -- -- 58
2019-11-11 22:00:00 14.2 8 Nordeste 23 Nordeste 0 -- -- 59
2019-11-11 21:00:00 14.2 7 Nordeste 18 Este 0 -- -- 58
2019-11-11 20:00:00 14.6 9 Nordeste 22 Nordeste 0 -- -- 56
2019-11-11 19:00:00 15.1 13 Norte 27 Noroeste 0 -- -- 54
2019-11-11 18:00:00 15.7 14 Noroeste 27 Noroeste 0 -- -- 48
2019-11-11 17:00:00 16.7 13 Noroeste 28 Noroeste 0 -- -- 45
2019-11-11 16:00:00 17.3 13 Noroeste 24 Noroeste 0 -- -- 39
2019-11-11 15:00:00 16.9 12 Norte 29 Norte 0 -- -- 40
2019-11-11 14:00:00 16 11 Norte 29 Norte 0 -- -- 41
2019-11-11 13:00:00 16 10 Norte 31 Norte 0 -- -- 40
2019-11-11 12:00:00 15.2 12 Norte 23 Norte 0 -- -- 43
2019-11-11 11:00:00 14.1 10 Noroeste 30 Noroeste 0 -- -- 44
2019-11-11 10:00:00 13 11 Norte 28 Norte 0 -- -- 46
2019-11-11 09:00:00 11.7 6 Norte 24 Norte 0 -- -- 46
2019-11-11 08:00:00 10.2 6 Norte 27 Nordeste 0 -- -- 53
2019-11-11 07:00:00 10.3 15 Nordeste 33 Este 0 -- -- 52
2019-11-11 06:00:00 10.2 11 Nordeste 28 Norte 0 -- -- 52
2019-11-11 05:00:00 10 10 Nordeste 37 Nordeste 0 -- -- 53
2019-11-11 04:00:00 9.9 13 Nordeste 35 Nordeste 0 -- -- 54
2019-11-11 03:00:00 10.5 10 Norte 37 Norte 0 -- -- 51
2019-11-11 02:00:00 11.1 13 Noroeste 37 Noroeste 0 -- -- 47
2019-11-11 01:00:00 11.5 20 Noroeste 47 Noroeste 0 -- -- 47
2019-11-11 00:00:00 12 21 Noroeste 42 Noroeste 0 -- -- 49